Wetterdaten: Woche 16.07.18 - 22.07.18 (KW29)
Datum Zeit Temperatur Luftfeuchte Luftdruck Niederschlag Windrichtung Sonnenschein Solar Wind
16.07.2018 00:00 17,5 C 79 % 1012,2 hPa 0,0 l/m SW 0,00 h 0 W/m 14,6 km/h (3 Bft)
16.07.2018 01:00 16,9 C 83 % 1012,0 hPa 0,0 l/m S-SW 0,00 h 0 W/m 8,9 km/h (2 Bft)
16.07.2018 02:00 15,8 C 92 % 1011,9 hPa 0,0 l/m N 0,00 h 0 W/m 0,7 km/h (0 Bft)
16.07.2018 03:00 15,5 C 94 % 1011,9 hPa 0,0 l/m N 0,00 h 0 W/m 0,0 km/h (0 Bft)
16.07.2018 04:00 15,4 C 94 % 1011,8 hPa 0,0 l/m N 0,00 h 0 W/m 0,0 km/h (0 Bft)
16.07.2018 05:00 15,4 C 96 % 1012,1 hPa 1,2 l/m N 0,00 h 5 W/m 0,0 km/h (0 Bft)
16.07.2018 06:00 15,3 C 97 % 1012,1 hPa 0,2 l/m N 0,00 h 19 W/m 0,0 km/h (0 Bft)
16.07.2018 07:00 15,5 C 98 % 1012,0 hPa 0,0 l/m S-SW 0,08 h 114 W/m 1,1 km/h (0 Bft)
16.07.2018 08:00 16,6 C 96 % 1011,9 hPa 0,0 l/m S-SW 0,50 h 273 W/m 3,9 km/h (1 Bft)
16.07.2018 09:00 18,8 C 86 % 1011,4 hPa 0,0 l/m S-SW 0,83 h 426 W/m 10,5 km/h (2 Bft)
16.07.2018 10:00 20,4 C 75 % 1010,9 hPa 0,0 l/m S-SW 0,83 h 601 W/m 14,9 km/h (3 Bft)
16.07.2018 11:00 22,1 C 70 % 1010,6 hPa 0,0 l/m SW 1,00 h 772 W/m 14,5 km/h (3 Bft)
16.07.2018 12:00 24,0 C 59 % 1010,2 hPa 0,0 l/m S-SW 0,83 h 816 W/m 12,2 km/h (2 Bft)
16.07.2018 13:00 23,2 C 60 % 1009,7 hPa 1,2 l/m SW 0,17 h 246 W/m 11,7 km/h (2 Bft)
16.07.2018 14:00 18,5 C 88 % 1009,5 hPa 3,6 l/m N 0,25 h 402 W/m 6,3 km/h (2 Bft)
16.07.2018 15:00 22,5 C 66 % 1009,0 hPa 0,0 l/m N 0,75 h 582 W/m 6,2 km/h (2 Bft)
16.07.2018 16:00 24,9 C 54 % 1008,7 hPa 0,0 l/m N-NO 0,58 h 540 W/m 12,6 km/h (3 Bft)
16.07.2018 17:00 23,3 C 65 % 1008,6 hPa 0,0 l/m N-NO 0,50 h 448 W/m 12,8 km/h (3 Bft)
16.07.2018 18:00 23,2 C 64 % 1008,2 hPa 0,0 l/m NO 0,92 h 354 W/m 7,6 km/h (2 Bft)
16.07.2018 19:00 23,6 C 59 % 1008,2 hPa 0,0 l/m NO 1,00 h 186 W/m 8,3 km/h (2 Bft)
16.07.2018 20:00 22,0 C 64 % 1008,7 hPa 0,0 l/m NO 0,00 h 40 W/m 8,8 km/h (2 Bft)
16.07.2018 21:00 19,2 C 77 % 1009,4 hPa 0,0 l/m N 0,00 h 7 W/m 0,0 km/h (0 Bft)
16.07.2018 22:00 17,2 C 83 % 1009,9 hPa 0,0 l/m N 0,00 h 0 W/m 0,0 km/h (0 Bft)
16.07.2018 23:00 16,1 C 87 % 1010,0 hPa 0,0 l/m N 0,00 h 0 W/m 0,7 km/h (0 Bft)
17.07.2018 00:00 15,2 C 90 % 1010,4 hPa 0,0 l/m N 0,00 h 0 W/m 0,4 km/h (0 Bft)
17.07.2018 01:00 14,4 C 92 % 1011,0 hPa 0,0 l/m N 0,00 h 0 W/m 0,0 km/h (0 Bft)
17.07.2018 02:00 13,6 C 94 % 1011,4 hPa 0,0 l/m N 0,00 h 0 W/m 0,0 km/h (0 Bft)
17.07.2018 03:00 13,1 C 95 % 1011,4 hPa 0,0 l/m N 0,00 h 0 W/m 0,0 km/h (0 Bft)
17.07.2018 04:00 12,7 C 96 % 1011,5 hPa 0,0 l/m N 0,00 h 0 W/m 0,0 km/h (0 Bft)
17.07.2018 05:00 12,2 C 97 % 1012,0 hPa 0,0 l/m N 0,00 h 8 W/m 0,0 km/h (0 Bft)
17.07.2018 06:00 12,0 C 97 % 1012,5 hPa 0,0 l/m N 0,08 h 52 W/m 0,0 km/h (0 Bft)
17.07.2018 07:00 14,0 C 95 % 1012,8 hPa 0,0 l/m N 0,75 h 176 W/m 0,0 km/h (0 Bft)
17.07.2018 08:00 16,8 C 89 % 1012,9 hPa 0,0 l/m NO 1,00 h 359 W/m 1,2 km/h (1 Bft)
17.07.2018 09:00 20,8 C 75 % 1012,9 hPa 0,0 l/m W 0,75 h 418 W/m 3,1 km/h (1 Bft)
17.07.2018 10:00 23,3 C 62 % 1012,8 hPa 0,0 l/m W-NW 0,75 h 538 W/m 8,4 km/h (2 Bft)
17.07.2018 11:00 23,9 C 58 % 1012,9 hPa 0,0 l/m SW 0,58 h 531 W/m 11,4 km/h (2 Bft)
17.07.2018 12:00 23,7 C 59 % 1012,9 hPa 0,0 l/m S-SO 0,08 h 191 W/m 16,5 km/h (3 Bft)
17.07.2018 13:00 20,0 C 82 % 1013,0 hPa 1,8 l/m S-SW 0,25 h 414 W/m 11,6 km/h (2 Bft)
17.07.2018 14:00 22,4 C 68 % 1012,9 hPa 0,0 l/m S-SW 0,92 h 849 W/m 15,7 km/h (3 Bft)
17.07.2018 15:00 24,2 C 57 % 1012,9 hPa 0,0 l/m SW 0,83 h 740 W/m 20,8 km/h (4 Bft)
17.07.2018 16:00 22,6 C 60 % 1013,2 hPa 0,0 l/m SW 0,25 h 408 W/m 21,6 km/h (4 Bft)
17.07.2018 17:00 23,8 C 55 % 1012,9 hPa 0,0 l/m W-SW 0,92 h 479 W/m 20,6 km/h (4 Bft)
17.07.2018 18:00 23,3 C 54 % 1013,1 hPa 0,0 l/m W 0,42 h 260 W/m 14,8 km/h (3 Bft)
17.07.2018 19:00 22,5 C 56 % 1013,5 hPa 0,0 l/m W-NW 0,00 h 87 W/m 2,8 km/h (1 Bft)
17.07.2018 20:00 21,4 C 63 % 1013,6 hPa 0,0 l/m N 0,00 h 17 W/m 0,5 km/h (0 Bft)
17.07.2018 21:00 19,2 C 75 % 1014,4 hPa 0,0 l/m W-SW 0,00 h 5 W/m 4,0 km/h (1 Bft)
17.07.2018 22:00 18,7 C 75 % 1014,8 hPa 0,0 l/m NW 0,00 h 0 W/m 5,2 km/h (1 Bft)
17.07.2018 23:00 18,2 C 76 % 1014,4 hPa 0,0 l/m W-NW 0,00 h 0 W/m 5,0 km/h (1 Bft)
18.07.2018 00:00 17,0 C 80 % 1014,6 hPa 0,0 l/m N 0,00 h 0 W/m 0,0 km/h (0 Bft)
18.07.2018 01:00 15,1 C 88 % 1014,8 hPa 0,0 l/m N 0,00 h 0 W/m 0,0 km/h (0 Bft)
18.07.2018 02:00 14,1 C 92 % 1015,0 hPa 0,0 l/m N 0,00 h 0 W/m 0,0 km/h (0 Bft)
18.07.2018 03:00 13,7 C 94 % 1015,0 hPa 0,0 l/m N 0,00 h 0 W/m 0,0 km/h (0 Bft)
18.07.2018 04:00 13,9 C 93 % 1014,9 hPa 0,0 l/m N 0,00 h 0 W/m 0,0 km/h (0 Bft)
18.07.2018 05:00 13,5 C 94 % 1015,0 hPa 0,0 l/m N 0,00 h 7 W/m 0,0 km/h (0 Bft)
18.07.2018 06:00 13,3 C 95 % 1015,1 hPa 0,0 l/m N 0,00 h 35 W/m 0,3 km/h (0 Bft)
18.07.2018 07:00 14,9 C 92 % 1015,2 hPa 0,0 l/m N 0,67 h 172 W/m 0,0 km/h (0 Bft)
18.07.2018 08:00 17,5 C 86 % 1015,2 hPa 0,0 l/m O 1,00 h 350 W/m 0,4 km/h (0 Bft)
18.07.2018 09:00 20,7 C 74 % 1015,0 hPa 0,0 l/m O-SO 0,83 h 429 W/m 5,2 km/h (1 Bft)
18.07.2018 10:00 22,9 C 62 % 1014,8 hPa 0,0 l/m O-SO 0,92 h 590 W/m 4,7 km/h (1 Bft)
18.07.2018 11:00 24,4 C 57 % 1014,5 hPa 0,0 l/m O-SO 1,00 h 786 W/m 8,0 km/h (2 Bft)
18.07.2018 12:00 25,7 C 53 % 1014,4 hPa 0,0 l/m S-SO 0,75 h 718 W/m 10,2 km/h (2 Bft)
18.07.2018 13:00 26,1 C 51 % 1014,0 hPa 0,0 l/m O 0,67 h 740 W/m 7,8 km/h (2 Bft)
18.07.2018 14:00 26,2 C 49 % 1013,6 hPa 0,0 l/m O-SO 0,50 h 613 W/m 5,5 km/h (1 Bft)
18.07.2018 15:00 26,4 C 48 % 1013,1 hPa 0,0 l/m SW 0,33 h 385 W/m 4,2 km/h (1 Bft)
18.07.2018 16:00 27,5 C 44 % 1012,9 hPa 0,0 l/m SW 0,83 h 578 W/m 4,9 km/h (1 Bft)
18.07.2018 17:00 28,1 C 42 % 1012,4 hPa 0,0 l/m W 0,92 h 493 W/m 5,2 km/h (1 Bft)
18.07.2018 18:00 28,0 C 42 % 1012,0 hPa 0,0 l/m N-NO 0,92 h 335 W/m 8,7 km/h (2 Bft)
18.07.2018 19:00 26,9 C 46 % 1011,8 hPa 0,0 l/m O-NO 0,67 h 169 W/m 9,2 km/h (2 Bft)
18.07.2018 20:00 24,8 C 51 % 1011,9 hPa 0,0 l/m N-NO 0,00 h 36 W/m 10,5 km/h (2 Bft)
18.07.2018 21:00 22,5 C 58 % 1012,3 hPa 0,0 l/m NO 0,00 h 6 W/m 7,9 km/h (2 Bft)
18.07.2018 22:00 20,1 C 67 % 1012,8 hPa 0,0 l/m N 0,00 h 0 W/m 1,7 km/h (1 Bft)
18.07.2018 23:00 18,4 C 74 % 1013,2 hPa 0,0 l/m N 0,00 h 0 W/m 0,1 km/h (0 Bft)
19.07.2018 00:00 17,4 C 79 % 1013,5 hPa 0,0 l/m N 0,00 h 0 W/m 0,1 km/h (0 Bft)
19.07.2018 01:00 16,6 C 80 % 1013,5 hPa 0,0 l/m N 0,00 h 0 W/m 0,4 km/h (0 Bft)
19.07.2018 02:00 15,9 C 82 % 1013,7 hPa 0,0 l/m N 0,00 h 0 W/m 1,3 km/h (1 Bft)
19.07.2018 03:00 15,9 C 79 % 1013,7 hPa 0,0 l/m N 0,00 h 0 W/m 0,0 km/h (0 Bft)
19.07.2018 04:00 15,3 C 80 % 1013,4 hPa 0,0 l/m N 0,00 h 0 W/m 0,0 km/h (0 Bft)
19.07.2018 05:00 14,6 C 83 % 1013,3 hPa 0,0 l/m N-NO 0,08 h 9 W/m 0,9 km/h (0 Bft)
19.07.2018 06:00 15,1 C 79 % 1013,4 hPa 0,0 l/m N 0,00 h 45 W/m 1,1 km/h (0 Bft)
19.07.2018 07:00 16,2 C 76 % 1013,6 hPa 0,0 l/m N 0,25 h 137 W/m 0,7 km/h (0 Bft)
19.07.2018 08:00 18,5 C 70 % 1013,9 hPa 0,0 l/m N-NO 1,00 h 359 W/m 4,4 km/h (1 Bft)
19.07.2018 09:00 21,4 C 60 % 1013,7 hPa 0,0 l/m O-NO 0,83 h 431 W/m 11,2 km/h (2 Bft)
19.07.2018 10:00 23,5 C 53 % 1013,6 hPa 0,0 l/m NO 0,92 h 588 W/m 11,7 km/h (2 Bft)
19.07.2018 11:00 25,3 C 48 % 1013,5 hPa 0,0 l/m O-NO 1,00 h 773 W/m 13,6 km/h (3 Bft)
19.07.2018 12:00 26,5 C 45 % 1013,4 hPa 0,0 l/m NO 1,00 h 841 W/m 14,4 km/h (3 Bft)
19.07.2018 13:00 27,1 C 44 % 1013,2 hPa 0,0 l/m O-NO 0,92 h 794 W/m 11,7 km/h (2 Bft)
19.07.2018 14:00 28,0 C 41 % 1012,8 hPa 0,0 l/m N 1,00 h 925 W/m 10,8 km/h (2 Bft)
19.07.2018 15:00 27,7 C 40 % 1012,4 hPa 0,0 l/m NO 0,50 h 480 W/m 9,1 km/h (2 Bft)
19.07.2018 16:00 28,4 C 40 % 1012,1 hPa 0,0 l/m O 0,75 h 579 W/m 9,8 km/h (2 Bft)
19.07.2018 17:00 28,6 C 38 % 1011,6 hPa 0,0 l/m NO 1,00 h 514 W/m 9,4 km/h (2 Bft)
19.07.2018 18:00 28,4 C 38 % 1011,1 hPa 0,0 l/m NO 1,00 h 348 W/m 10,8 km/h (2 Bft)
19.07.2018 19:00 27,3 C 40 % 1011,0 hPa 0,0 l/m O-NO 0,67 h 154 W/m 9,7 km/h (2 Bft)
19.07.2018 20:00 25,2 C 48 % 1011,1 hPa 0,0 l/m O-NO 0,08 h 35 W/m 3,9 km/h (1 Bft)
19.07.2018 21:00 21,5 C 63 % 1011,5 hPa 0,0 l/m O-NO 0,08 h 6 W/m 1,5 km/h (1 Bft)
19.07.2018 22:00 19,9 C 68 % 1011,8 hPa 0,0 l/m N 0,00 h 0 W/m 0,4 km/h (0 Bft)
19.07.2018 23:00 19,0 C 69 % 1011,8 hPa 0,0 l/m N 0,00 h 0 W/m 1,1 km/h (0 Bft)
20.07.2018 00:00 18,0 C 71 % 1012,0 hPa 0,0 l/m N 0,00 h 0 W/m 0,3 km/h (0 Bft)
20.07.2018 01:00 17,4 C 72 % 1011,9 hPa 0,0 l/m N 0,00 h 0 W/m 0,3 km/h (0 Bft)
20.07.2018 02:00 16,7 C 75 % 1011,5 hPa 0,0 l/m N 0,00 h 0 W/m 0,8 km/h (0 Bft)
20.07.2018 03:00 16,1 C 77 % 1011,1 hPa 0,0 l/m N 0,00 h 0 W/m 0,0 km/h (0 Bft)
20.07.2018 04:00 15,5 C 79 % 1010,9 hPa 0,0 l/m N 0,00 h 0 W/m 0,1 km/h (0 Bft)
20.07.2018 05:00 14,9 C 81 % 1010,8 hPa 0,0 l/m N 0,08 h 8 W/m 0,0 km/h (0 Bft)
20.07.2018 06:00 14,9 C 82 % 1010,7 hPa 0,0 l/m N 0,00 h 33 W/m 0,0 km/h (0 Bft)
20.07.2018 07:00 16,5 C 76 % 1010,8 hPa 0,0 l/m O-NO 0,75 h 170 W/m 1,6 km/h (1 Bft)
20.07.2018 08:00 19,1 C 68 % 1010,8 hPa 0,0 l/m N 1,00 h 341 W/m 0,3 km/h (0 Bft)
20.07.2018 09:00 21,8 C 63 % 1010,6 hPa 0,0 l/m N 0,83 h 412 W/m 0,9 km/h (0 Bft)
20.07.2018 10:00 23,8 C 59 % 1010,6 hPa 0,0 l/m N 0,58 h 477 W/m 4,3 km/h (1 Bft)
20.07.2018 11:00 25,1 C 57 % 1010,3 hPa 0,0 l/m O 0,42 h 449 W/m 3,2 km/h (1 Bft)
20.07.2018 12:00 26,8 C 52 % 1010,0 hPa 0,0 l/m S 0,83 h 792 W/m 9,1 km/h (2 Bft)
20.07.2018 13:00 29,2 C 42 % 1009,3 hPa 0,0 l/m S 1,00 h 948 W/m 12,0 km/h (2 Bft)
20.07.2018 14:00 27,2 C 48 % 1009,0 hPa 0,0 l/m N-NO 0,42 h 475 W/m 17,6 km/h (3 Bft)
20.07.2018 15:00 24,3 C 56 % 1009,4 hPa 0,0 l/m NO 0,75 h 649 W/m 13,6 km/h (3 Bft)
20.07.2018 16:00 26,2 C 50 % 1008,9 hPa 0,0 l/m NO 0,42 h 412 W/m 11,7 km/h (2 Bft)
20.07.2018 17:00 25,7 C 53 % 1008,3 hPa 0,0 l/m NO 0,00 h 245 W/m 5,9 km/h (2 Bft)
20.07.2018 18:00 25,6 C 52 % 1008,4 hPa 0,0 l/m N 0,00 h 164 W/m 1,5 km/h (1 Bft)
20.07.2018 19:00 23,8 C 60 % 1009,1 hPa 0,0 l/m N 0,00 h 59 W/m 11,8 km/h (2 Bft)
20.07.2018 20:00 21,2 C 71 % 1009,2 hPa 0,0 l/m N 0,00 h 30 W/m 1,3 km/h (1 Bft)
20.07.2018 21:00 19,6 C 84 % 1009,1 hPa 0,0 l/m S-SW 0,00 h 5 W/m 3,9 km/h (1 Bft)
20.07.2018 22:00 18,8 C 86 % 1009,3 hPa 0,0 l/m S-SW 0,00 h 0 W/m 4,8 km/h (1 Bft)
20.07.2018 23:00 18,4 C 88 % 1009,4 hPa 0,0 l/m S-SW 0,00 h 0 W/m 4,7 km/h (1 Bft)
21.07.2018 00:00 18,4 C 83 % 1009,3 hPa 0,0 l/m SW 0,00 h 0 W/m 13,8 km/h (3 Bft)
21.07.2018 01:00 18,4 C 81 % 1009,3 hPa 0,0 l/m SW 0,00 h 0 W/m 10,2 km/h (2 Bft)
21.07.2018 02:00 18,5 C 82 % 1008,8 hPa 0,0 l/m W-SW 0,00 h 0 W/m 8,4 km/h (2 Bft)
21.07.2018 03:00 17,5 C 87 % 1008,7 hPa 0,0 l/m W 0,00 h 0 W/m 1,5 km/h (1 Bft)
21.07.2018 04:00 17,3 C 89 % 1008,5 hPa 0,0 l/m N 0,00 h 0 W/m 0,0 km/h (0 Bft)
21.07.2018 05:00 17,0 C 90 % 1008,5 hPa 0,0 l/m N 0,00 h 0 W/m 0,0 km/h (0 Bft)
21.07.2018 06:00 16,8 C 92 % 1008,4 hPa 0,0 l/m W-SW 0,00 h 18 W/m 2,4 km/h (1 Bft)
21.07.2018 07:00 16,6 C 94 % 1008,6 hPa 0,2 l/m W-SW 0,00 h 41 W/m 2,0 km/h (1 Bft)
21.07.2018 08:00 16,7 C 96 % 1008,7 hPa 0,2 l/m W-SW 0,00 h 84 W/m 2,1 km/h (1 Bft)
21.07.2018 09:00 17,2 C 95 % 1009,1 hPa 0,0 l/m W-SW 0,00 h 157 W/m 10,3 km/h (2 Bft)
21.07.2018 10:00 18,4 C 91 % 1009,1 hPa 0,0 l/m SW 0,25 h 292 W/m 12,2 km/h (2 Bft)
21.07.2018 11:00 19,1 C 83 % 1009,1 hPa 0,0 l/m W-SW 0,00 h 252 W/m 11,5 km/h (2 Bft)
21.07.2018 12:00 19,9 C 78 % 1009,3 hPa 0,0 l/m W 0,00 h 315 W/m 10,9 km/h (2 Bft)
21.07.2018 13:00 20,9 C 72 % 1009,1 hPa 0,0 l/m W-SW 0,25 h 441 W/m 7,5 km/h (2 Bft)
21.07.2018 14:00 21,6 C 67 % 1008,7 hPa 0,0 l/m W-SW 0,17 h 265 W/m 5,0 km/h (1 Bft)
21.07.2018 15:00 18,2 C 84 % 1009,3 hPa 2,0 l/m W-SW 0,00 h 63 W/m 18,6 km/h (3 Bft)
21.07.2018 16:00 16,4 C 94 % 1009,5 hPa 0,6 l/m N-NW 0,00 h 154 W/m 3,7 km/h (1 Bft)
21.07.2018 17:00 17,8 C 93 % 1009,7 hPa 0,0 l/m N-NW 0,00 h 202 W/m 3,1 km/h (1 Bft)
21.07.2018 18:00 18,3 C 92 % 1009,9 hPa 0,0 l/m W-NW 0,00 h 140 W/m 5,3 km/h (1 Bft)
21.07.2018 19:00 17,7 C 92 % 1010,0 hPa 0,0 l/m W-NW 0,00 h 60 W/m 12,9 km/h (3 Bft)
21.07.2018 20:00 17,1 C 93 % 1010,1 hPa 0,0 l/m W-NW 0,00 h 27 W/m 3,1 km/h (1 Bft)
21.07.2018 21:00 16,4 C 94 % 1010,6 hPa 0,0 l/m N 0,00 h 0 W/m 0,0 km/h (0 Bft)
21.07.2018 22:00 16,3 C 96 % 1011,2 hPa 0,2 l/m W-NW 0,00 h 0 W/m 5,8 km/h (1 Bft)
21.07.2018 23:00 16,2 C 96 % 1011,4 hPa 0,0 l/m W 0,00 h 0 W/m 8,2 km/h (2 Bft)
22.07.2018 00:00 16,2 C 96 % 1011,4 hPa 0,0 l/m W 0,00 h 0 W/m 5,9 km/h (2 Bft)
22.07.2018 01:00 16,2 C 96 % 1011,2 hPa 0,2 l/m W 0,00 h 0 W/m 3,2 km/h (1 Bft)
22.07.2018 02:00 16,1 C 97 % 1011,0 hPa 0,0 l/m N 0,00 h 0 W/m 0,8 km/h (0 Bft)
22.07.2018 03:00 15,8 C 98 % 1010,9 hPa 0,0 l/m N 0,00 h 0 W/m 0,9 km/h (0 Bft)
22.07.2018 04:00 15,7 C 98 % 1010,7 hPa 0,0 l/m W 0,00 h 0 W/m 1,9 km/h (1 Bft)
22.07.2018 05:00 15,8 C 98 % 1010,8 hPa 0,0 l/m W-SW 0,00 h 0 W/m 9,0 km/h (2 Bft)
22.07.2018 06:00 16,0 C 97 % 1011,1 hPa 0,0 l/m W-SW 0,00 h 11 W/m 4,2 km/h (1 Bft)
22.07.2018 07:00 16,1 C 97 % 1011,5 hPa 0,0 l/m W-SW 0,00 h 27 W/m 1,2 km/h (1 Bft)
22.07.2018 08:00 16,3 C 96 % 1011,8 hPa 0,2 l/m N 0,00 h 39 W/m 0,0 km/h (0 Bft)
22.07.2018 09:00 16,2 C 96 % 1012,1 hPa 0,8 l/m W-SW 0,00 h 39 W/m 2,1 km/h (1 Bft)
22.07.2018 10:00 16,1 C 97 % 1012,3 hPa 0,4 l/m W-SW 0,00 h 85 W/m 1,7 km/h (1 Bft)
22.07.2018 11:00 16,6 C 96 % 1012,4 hPa 0,0 l/m SW 0,00 h 126 W/m 7,9 km/h (2 Bft)
22.07.2018 12:00 18,3 C 92 % 1012,4 hPa 0,0 l/m W 0,33 h 428 W/m 10,5 km/h (2 Bft)
22.07.2018 13:00 20,0 C 84 % 1012,1 hPa 0,0 l/m W-SW 0,17 h 418 W/m 11,8 km/h (2 Bft)
22.07.2018 14:00 19,8 C 83 % 1011,9 hPa 0,2 l/m W 0,00 h 134 W/m 9,0 km/h (2 Bft)
22.07.2018 15:00 18,9 C 92 % 1011,7 hPa 0,0 l/m W 0,25 h 373 W/m 8,9 km/h (2 Bft)
22.07.2018 16:00 19,9 C 85 % 1011,5 hPa 0,0 l/m SW 0,33 h 384 W/m 16,6 km/h (3 Bft)
22.07.2018 17:00 17,7 C 91 % 1012,2 hPa 6,6 l/m O-NO 0,00 h 18 W/m 9,0 km/h (2 Bft)
22.07.2018 18:00 16,2 C 97 % 1012,2 hPa 1,4 l/m N 0,00 h 57 W/m 0,3 km/h (0 Bft)
22.07.2018 19:00 15,9 C 97 % 1012,4 hPa 0,8 l/m N 0,00 h 48 W/m 0,0 km/h (0 Bft)
22.07.2018 20:00 16,2 C 98 % 1012,6 hPa 0,0 l/m N 0,00 h 27 W/m 0,0 km/h (0 Bft)
22.07.2018 21:00 16,0 C 98 % 1013,0 hPa 0,0 l/m N 0,00 h 0 W/m 0,0 km/h (0 Bft)
22.07.2018 22:00 15,8 C 99 % 1013,5 hPa 0,0 l/m N 0,00 h 0 W/m 0,0 km/h (0 Bft)
22.07.2018 23:00 15,8 C 99 % 1013,6 hPa 0,0 l/m N 0,00 h 0 W/m 0,0 km/h (0 Bft)
Min-Datum _ 17.07.18 19.07.18 16.07.18 - - - - 16.07.18
_ Min-Zeit 06:25 17:20 18:50 - - - - 01:50
Minimum _ 11,8 C 37 % 1008,1 hPa - - - - 0,0 km/h (0 Bft)
Max-Datum _ 20.07.18 22.07.18 18.07.18 22.07.18 - 16.07.18 16.07.18 17.07.18
_ Max-Zeit 14:15 21:55 07:55 17:25 - 07:55 13:00 15:40
Maximum _ 30,3 C 99 % 1015,4 hPa 6,6 l/m - 0,08 h 1155 W/m 30,6 km/h
SW (5 Bft)
Durchschnitt _ 19,5 C 76 % 1011,6 hPa #21,8 l/m SW #45:45 h 306 W/m 5,5 km/h (1 Bft)